createdAt,value
2023-01-11T00:00:44.827Z,100594.97
2023-01-11T00:03:11.559Z,100603.22
2023-01-11T00:05:39.952Z,100596.00
2023-01-11T00:08:06.954Z,100588.75
2023-01-11T00:10:33.597Z,100576.69
2023-01-11T00:13:03.393Z,100582.72
2023-01-11T00:15:30.220Z,100578.88
2023-01-11T00:17:56.724Z,100585.72
2023-01-11T00:20:23.474Z,100564.19
2023-01-11T00:22:49.777Z,100573.66
2023-01-11T00:25:16.083Z,100563.00
2023-01-11T00:27:42.496Z,100569.41
2023-01-11T00:30:09.515Z,100566.59
2023-01-11T00:32:38.671Z,100567.00
2023-01-11T00:35:05.425Z,100569.03
2023-01-11T00:37:31.797Z,100556.34
2023-01-11T00:39:58.103Z,100563.19
2023-01-11T00:42:24.451Z,100568.19
2023-01-11T00:44:50.783Z,100566.41
2023-01-11T00:47:17.354Z,100562.16
2023-01-11T00:49:44.092Z,100548.06
2023-01-11T00:52:10.764Z,100551.50
2023-01-11T00:54:38.379Z,100545.84
2023-01-11T00:57:05.390Z,100551.69
2023-01-11T00:59:31.837Z,100555.28
2023-01-11T01:01:58.135Z,100539.97
2023-01-11T01:04:24.594Z,100530.56
2023-01-11T01:06:51.013Z,100548.41
2023-01-11T01:09:17.419Z,100528.88
2023-01-11T01:11:43.806Z,100536.97
2023-01-11T01:14:14.199Z,100522.66
2023-01-11T01:16:40.707Z,100526.25
2023-01-11T01:19:07.027Z,100531.09
2023-01-11T01:21:33.424Z,100525.25
2023-01-11T01:23:59.774Z,100530.69
2023-01-11T01:26:26.080Z,100540.53
2023-01-11T01:28:52.488Z,100518.00
2023-01-11T01:31:18.842Z,100527.84
2023-01-11T01:33:45.214Z,100529.66
2023-01-11T01:36:11.570Z,100521.81
2023-01-11T01:38:37.900Z,100519.38
2023-01-11T01:41:04.683Z,100535.06
2023-01-11T01:43:48.151Z,100546.69
2023-01-11T01:46:15.474Z,100532.41
2023-01-11T01:48:45.153Z,100535.81
2023-01-11T01:51:16.926Z,100531.03
2023-01-11T01:53:47.258Z,100541.00
2023-01-11T01:56:24.093Z,100521.34
2023-01-11T01:58:56.231Z,100526.97
2023-01-11T02:01:22.544Z,100526.94
2023-01-11T02:03:50.744Z,100525.69
2023-01-11T02:06:18.089Z,100532.56
2023-01-11T02:08:49.751Z,100516.47
2023-01-11T02:11:17.353Z,100520.91
2023-01-11T02:13:43.690Z,100510.03
2023-01-11T02:16:10.086Z,100518.47
2023-01-11T02:18:37.936Z,100523.41
2023-01-11T02:21:21.691Z,100519.63
2023-01-11T02:24:30.088Z,100531.25
2023-01-11T02:27:11.570Z,100510.97
2023-01-11T02:29:51.964Z,100524.41
2023-01-11T02:32:45.671Z,100515.09
2023-01-11T02:35:36.136Z,100517.31
2023-01-11T02:38:13.653Z,100517.31
2023-01-11T02:41:05.351Z,100517.13
2023-01-11T02:44:00.772Z,100519.56
2023-01-11T02:46:46.281Z,100511.50
2023-01-11T02:49:24.742Z,100516.28
2023-01-11T02:51:57.397Z,100507.47
2023-01-11T02:54:24.254Z,100509.47
2023-01-11T02:56:55.717Z,100495.19
2023-01-11T02:59:28.262Z,100505.03
2023-01-11T03:01:54.793Z,100516.50
2023-01-11T03:04:23.543Z,100501.44
2023-01-11T03:07:13.342Z,100505.22
2023-01-11T03:09:59.870Z,100516.28
2023-01-11T03:12:42.835Z,100507.91
2023-01-11T03:15:47.874Z,100520.34
2023-01-11T03:18:30.940Z,100525.38
2023-01-11T03:21:31.026Z,100525.19
2023-01-11T03:24:14.342Z,100525.78
2023-01-11T03:26:56.648Z,100515.91
2023-01-11T03:29:29.919Z,100521.53
2023-01-11T03:32:22.012Z,100517.31
2023-01-11T03:35:09.559Z,100515.06
2023-01-11T03:37:42.290Z,100520.28
2023-01-11T03:40:14.604Z,100526.34
2023-01-11T03:42:46.385Z,100534.00
2023-01-11T03:45:13.095Z,100537.41
2023-01-11T03:47:39.571Z,100536.03
2023-01-11T03:50:10.336Z,100543.63
2023-01-11T03:52:40.304Z,100549.66
2023-01-11T03:55:09.841Z,100545.59
2023-01-11T03:57:42.184Z,100541.75
2023-01-11T04:00:09.850Z,100538.91
2023-01-11T04:02:40.238Z,100536.88
2023-01-11T04:05:09.292Z,100530.66
2023-01-11T04:07:35.645Z,100537.66
2023-01-11T04:10:02.865Z,100535.81
2023-01-11T04:12:29.210Z,100535.81
2023-01-11T04:14:55.629Z,100539.84
2023-01-11T04:17:22.115Z,100547.06
2023-01-11T04:19:48.525Z,100558.16
2023-01-11T04:22:14.855Z,100568.03
2023-01-11T04:24:41.183Z,100567.38
2023-01-11T04:27:07.546Z,100574.84
2023-01-11T04:29:34.045Z,100569.59
2023-01-11T04:32:00.412Z,100566.97
2023-01-11T04:34:26.734Z,100573.59
2023-01-11T04:36:53.090Z,100583.28
2023-01-11T04:39:19.495Z,100580.88
2023-01-11T04:41:45.816Z,100575.25
2023-01-11T04:44:12.340Z,100579.47
2023-01-11T04:46:38.839Z,100577.03
2023-01-11T04:49:05.205Z,100582.06
2023-01-11T04:51:31.602Z,100586.50
2023-01-11T04:53:57.961Z,100588.88
2023-01-11T04:56:24.319Z,100586.50
2023-01-11T04:58:50.676Z,100599.97
2023-01-11T05:01:19.073Z,100594.50
2023-01-11T05:03:46.175Z,100591.75
2023-01-11T05:06:14.157Z,100589.28
2023-01-11T05:08:44.456Z,100587.03
2023-01-11T05:11:10.879Z,100593.88
2023-01-11T05:13:37.306Z,100594.09
2023-01-11T05:16:03.860Z,100593.28
2023-01-11T05:18:30.303Z,100595.69
2023-01-11T05:20:56.673Z,100600.94
2023-01-11T05:23:23.122Z,100602.75
2023-01-11T05:25:49.569Z,100609.59
2023-01-11T05:28:16.121Z,100613.84
2023-01-11T05:30:42.457Z,100619.13
2023-01-11T05:33:08.881Z,100612.66
2023-01-11T05:35:35.323Z,100617.84
2023-01-11T05:38:01.938Z,100616.59
2023-01-11T05:40:28.370Z,100611.00
2023-01-11T05:42:54.822Z,100623.25
2023-01-11T05:45:21.193Z,100619.84
2023-01-11T05:47:47.619Z,100616.59
2023-01-11T05:50:14.048Z,100622.28
2023-01-11T05:52:40.404Z,100625.09
2023-01-11T05:55:07.619Z,100628.13
2023-01-11T05:57:34.167Z,100632.97
2023-01-11T06:00:00.683Z,100636.00
2023-01-11T06:02:27.235Z,100629.72
2023-01-11T06:04:55.465Z,100634.75
2023-01-11T06:07:22.036Z,100634.59
2023-01-11T06:09:48.459Z,100638.63
2023-01-11T06:12:14.963Z,100645.69
2023-01-11T06:14:41.365Z,100654.34
2023-01-11T06:17:07.979Z,100644.06
2023-01-11T06:19:34.564Z,100648.50
2023-01-11T06:22:01.031Z,100645.31
2023-01-11T06:24:27.508Z,100641.88
2023-01-11T06:26:54.063Z,100640.69
2023-01-11T06:29:20.635Z,100653.56
2023-01-11T06:31:47.219Z,100644.31
2023-01-11T06:34:13.821Z,100657.22
2023-01-11T06:36:40.279Z,100668.13
2023-01-11T06:39:06.664Z,100673.00
2023-01-11T06:41:33.233Z,100685.28
2023-01-11T06:43:59.992Z,100673.41
2023-01-11T06:46:28.917Z,100682.50
2023-01-11T06:48:55.545Z,100682.91
2023-01-11T06:51:22.068Z,100681.31
2023-01-11T06:53:48.626Z,100690.22
2023-01-11T06:56:17.522Z,100695.47
2023-01-11T06:58:46.763Z,100689.03
2023-01-11T07:01:13.638Z,100708.19
2023-01-11T07:03:40.004Z,100698.72
2023-01-11T07:06:06.563Z,100695.13
2023-01-11T07:08:32.899Z,100690.28
2023-01-11T07:10:59.326Z,100704.41
2023-01-11T07:13:25.763Z,100709.81
2023-01-11T07:15:52.281Z,100722.13
2023-01-11T07:18:19.547Z,100716.47
2023-01-11T07:20:46.269Z,100714.66
2023-01-11T07:23:12.640Z,100719.13
2023-01-11T07:25:39.091Z,100727.00
2023-01-11T07:28:07.657Z,100733.47
2023-01-11T07:30:51.778Z,100726.59
2023-01-11T07:33:22.361Z,100744.94
2023-01-11T07:35:49.040Z,100755.81
2023-01-11T07:38:15.418Z,100762.88
2023-01-11T07:40:42.022Z,100757.66
2023-01-11T07:43:11.351Z,100774.78
2023-01-11T07:45:47.209Z,100777.78
2023-01-11T07:48:14.875Z,100781.44
2023-01-11T07:50:44.563Z,100789.47
2023-01-11T07:53:12.785Z,100781.44
2023-01-11T07:55:40.278Z,100791.50
2023-01-11T07:58:07.550Z,100778.63
2023-01-11T08:00:34.249Z,100789.91
2023-01-11T08:03:01.279Z,100777.44
2023-01-11T08:05:28.096Z,100787.09
2023-01-11T08:07:54.526Z,100791.53
2023-01-11T08:10:20.953Z,100796.16
2023-01-11T08:12:51.425Z,100811.03
2023-01-11T08:15:18.036Z,100814.50
2023-01-11T08:17:44.498Z,100819.94
2023-01-11T08:20:10.904Z,100824.13
2023-01-11T08:22:37.256Z,100822.53
2023-01-11T08:25:03.699Z,100840.66
2023-01-11T08:27:30.199Z,100839.84
2023-01-11T08:29:56.510Z,100841.44
2023-01-11T08:32:22.912Z,100838.41
2023-01-11T08:34:49.311Z,100847.25
2023-01-11T08:37:15.677Z,100847.06
2023-01-11T08:39:42.022Z,100851.50
2023-01-11T08:42:08.621Z,100852.06
2023-01-11T08:44:35.329Z,100854.50
2023-01-11T08:47:02.869Z,100872.97
2023-01-11T08:49:29.292Z,100875.59
2023-01-11T08:51:55.859Z,100884.44
2023-01-11T08:54:22.304Z,100885.81
2023-01-11T08:56:48.673Z,100885.63
2023-01-11T08:59:15.095Z,100886.78
2023-01-11T09:01:41.804Z,100901.06
2023-01-11T09:04:23.092Z,100900.84
2023-01-11T09:06:51.072Z,100906.28
2023-01-11T09:09:17.541Z,100910.50
2023-01-11T09:11:44.109Z,100900.28
2023-01-11T09:14:10.534Z,100916.34
2023-01-11T09:16:37.038Z,100908.03
2023-01-11T09:19:03.388Z,100918.31
2023-01-11T09:21:29.809Z,100910.41
2023-01-11T09:23:56.363Z,100914.84
2023-01-11T09:26:22.712Z,100923.13
2023-01-11T09:28:49.123Z,100903.34
2023-01-11T09:31:15.525Z,100905.78
2023-01-11T09:33:42.089Z,100920.13
2023-01-11T09:36:08.553Z,100918.13
2023-01-11T09:38:34.899Z,100913.47
2023-01-11T09:41:31.565Z,100918.75
2023-01-11T09:44:15.175Z,100929.38
2023-01-11T09:46:46.396Z,100933.56
2023-01-11T09:49:19.220Z,100935.94
2023-01-11T09:51:47.104Z,100931.13
2023-01-11T09:54:27.031Z,100929.69
2023-01-11T09:57:19.563Z,100945.75
2023-01-11T09:59:54.752Z,100935.69
2023-01-11T10:02:56.393Z,100947.56
2023-01-11T10:05:41.491Z,100954.22
2023-01-11T10:18:32.541Z,100951.72
2023-01-11T10:18:34.081Z,100948.22
2023-01-11T10:20:20.920Z,100943.00
2023-01-11T10:22:48.973Z,100946.47
2023-01-11T10:25:19.560Z,100943.88
2023-01-11T10:27:59.761Z,100953.00
2023-01-11T10:30:33.135Z,100958.03
2023-01-11T10:33:12.364Z,100954.03
2023-01-11T10:35:45.821Z,100964.72
2023-01-11T10:38:48.239Z,100964.91
2023-01-11T10:41:23.186Z,100965.72
2023-01-11T10:44:01.446Z,100973.97
2023-01-11T10:46:30.834Z,100963.69
2023-01-11T10:49:25.142Z,100976.38
2023-01-11T10:51:54.856Z,100972.56
2023-01-11T10:54:29.508Z,100967.75
2023-01-11T10:57:28.572Z,100975.00
2023-01-11T11:00:15.661Z,100985.88
2023-01-11T11:03:07.084Z,100984.69
2023-01-11T11:06:04.659Z,100986.31
2023-01-11T11:08:53.137Z,100981.84
2023-01-11T11:11:29.071Z,100980.47
2023-01-11T11:14:17.191Z,100982.47
2023-01-11T11:16:55.766Z,100987.72
2023-01-11T11:19:26.425Z,100992.13
2023-01-11T11:21:52.821Z,100983.47
2023-01-11T11:24:27.024Z,100988.94
2023-01-11T11:27:06.848Z,100978.84
2023-01-11T11:29:41.132Z,100975.00
2023-01-11T11:32:19.209Z,100980.47
2023-01-11T11:34:48.275Z,100961.91
2023-01-11T11:37:28.264Z,100964.53
2023-01-11T11:39:55.354Z,100967.16
2023-01-11T11:42:22.338Z,100974.84
2023-01-11T11:45:05.659Z,100966.56
2023-01-11T11:47:32.034Z,100974.44
2023-01-11T11:50:42.629Z,100976.44
2023-01-11T11:53:07.966Z,100987.72
2023-01-11T11:55:35.504Z,100988.94
2023-01-11T11:58:07.627Z,100996.19
2023-01-11T12:00:43.823Z,100993.38
2023-01-11T12:03:18.901Z,100997.59
2023-01-11T12:05:58.715Z,100996.19
2023-01-11T12:08:25.453Z,100990.91
2023-01-11T12:10:59.538Z,100989.69
2023-01-11T12:13:29.441Z,101000.53
2023-01-11T12:15:58.316Z,100991.66
2023-01-11T12:18:39.284Z,100997.31
2023-01-11T12:21:23.692Z,101011.25
2023-01-11T12:24:16.326Z,100997.75
2023-01-11T12:27:16.811Z,100994.75
2023-01-11T12:29:53.680Z,100975.19
2023-01-11T12:32:51.061Z,100971.16
2023-01-11T12:35:33.625Z,100963.50
2023-01-11T12:38:27.952Z,100966.31
2023-01-11T12:41:11.433Z,100968.88
2023-01-11T12:43:46.924Z,100975.75
2023-01-11T12:46:20.576Z,100965.81
2023-01-11T12:48:58.643Z,100974.84
2023-01-11T12:51:40.094Z,100974.88
2023-01-11T12:54:28.182Z,100987.13
2023-01-11T12:57:16.086Z,100993.38
2023-01-11T13:00:05.157Z,100987.97
2023-01-11T13:03:08.471Z,101000.50
2023-01-11T13:06:09.672Z,101003.34
2023-01-11T13:09:09.807Z,101005.56
2023-01-11T13:12:07.084Z,101010.19
2023-01-11T13:15:01.434Z,101000.09
2023-01-11T13:17:49.856Z,101004.13
2023-01-11T13:20:59.208Z,101003.16
2023-01-11T13:23:41.608Z,101011.00
2023-01-11T13:26:31.977Z,101002.53
2023-01-11T13:29:16.215Z,100995.47
2023-01-11T13:31:43.986Z,101015.25
2023-01-11T13:34:28.060Z,101007.81
2023-01-11T13:37:02.707Z,100997.72
2023-01-11T13:40:01.518Z,100999.53
2023-01-11T13:42:35.146Z,101001.38
2023-01-11T13:45:14.295Z,101011.44
2023-01-11T13:47:55.661Z,101007.00
2023-01-11T13:50:28.523Z,101010.41
2023-01-11T13:53:15.201Z,101005.16
2023-01-11T13:55:54.551Z,101012.59
2023-01-11T13:58:25.832Z,101023.25
2023-01-11T14:01:02.169Z,101014.16
2023-01-11T14:03:40.602Z,101012.94
2023-01-11T14:06:13.075Z,101009.47
2023-01-11T14:09:04.410Z,101014.69
2023-01-11T14:11:52.071Z,101013.47
2023-01-11T14:14:49.591Z,101000.75
2023-01-11T14:17:27.905Z,101009.03
2023-01-11T14:20:14.760Z,101005.59
2023-01-11T14:22:46.844Z,101005.59
2023-01-11T14:25:19.562Z,101008.38
2023-01-11T14:27:51.791Z,101002.75
2023-01-11T14:30:36.253Z,100995.72
2023-01-11T14:33:38.457Z,101003.34
2023-01-11T14:36:13.985Z,100999.56
2023-01-11T14:38:59.025Z,101006.81
2023-01-11T14:41:59.022Z,101006.81
2023-01-11T14:44:57.919Z,101010.03
2023-01-11T14:47:54.765Z,101007.78
2023-01-11T14:50:33.632Z,101022.03
2023-01-11T14:53:03.551Z,101014.97
2023-01-11T14:55:37.236Z,101012.88
2023-01-11T14:58:09.399Z,101005.84
2023-01-11T15:00:35.644Z,101017.25
2023-01-11T15:03:05.032Z,101010.13
2023-01-11T15:05:31.396Z,101012.72
2023-01-11T15:08:13.028Z,101026.16
2023-01-11T15:11:01.413Z,101024.91
2023-01-11T15:13:36.491Z,101019.22
2023-01-11T15:16:16.999Z,101024.25
2023-01-11T15:18:45.831Z,101014.75
2023-01-11T15:21:18.660Z,101034.41
2023-01-11T15:23:57.304Z,101032.34
2023-01-11T15:26:26.018Z,101023.06
2023-01-11T15:28:56.234Z,101025.88
2023-01-11T15:31:34.459Z,101033.66
2023-01-11T15:34:04.442Z,101019.63
2023-01-11T15:37:01.966Z,101025.66
2023-01-11T15:39:44.366Z,101021.28
2023-01-11T15:42:16.550Z,101032.81
2023-01-11T15:44:42.819Z,101037.78
2023-01-11T15:47:44.628Z,101027.88
2023-01-11T15:50:26.772Z,101008.13
2023-01-11T15:53:17.430Z,101017.81
2023-01-11T15:56:02.468Z,101019.81
2023-01-11T15:58:56.704Z,101024.66
2023-01-11T16:01:24.434Z,101026.63
2023-01-11T16:04:12.150Z,101006.50
2023-01-11T16:06:40.819Z,101021.69
2023-01-11T16:09:35.123Z,101021.06
2023-01-11T16:12:36.837Z,101033.84
2023-01-11T16:15:22.689Z,101037.81
2023-01-11T16:17:50.392Z,101027.63
2023-01-11T16:20:19.582Z,101043.94
2023-01-11T16:23:02.377Z,101034.84
2023-01-11T16:25:31.418Z,101022.88
2023-01-11T16:27:59.455Z,101041.78
2023-01-11T16:30:27.546Z,101042.41
2023-01-11T16:33:32.377Z,101045.47
2023-01-11T16:36:21.718Z,101052.50
2023-01-11T16:38:53.831Z,101047.44
2023-01-11T16:41:21.173Z,101042.84
2023-01-11T16:43:52.620Z,101049.38
2023-01-11T16:46:43.140Z,101044.44
2023-01-11T16:49:10.601Z,101053.25
2023-01-11T16:51:36.977Z,101059.53
2023-01-11T16:54:04.181Z,101052.50
2023-01-11T16:56:30.538Z,101051.75
2023-01-11T16:59:15.264Z,101052.41
2023-01-11T17:01:51.072Z,101059.59
2023-01-11T17:04:28.484Z,101045.09
2023-01-11T17:06:55.588Z,101052.66
2023-01-11T17:09:24.083Z,101062.38
2023-01-11T17:11:51.639Z,101054.19
2023-01-11T17:14:55.471Z,101056.78
2023-01-11T17:17:23.292Z,101048.53
2023-01-11T17:19:50.344Z,101045.09
2023-01-11T17:22:29.398Z,101043.84
2023-01-11T17:24:59.855Z,101029.75
2023-01-11T17:27:29.189Z,101030.25
2023-01-11T17:29:57.613Z,101009.63
2023-01-11T17:32:42.561Z,101027.53
2023-01-11T17:35:16.187Z,101014.03
2023-01-11T17:37:47.681Z,101031.88
2023-01-11T17:40:31.057Z,101026.22
2023-01-11T17:43:04.368Z,101029.63
2023-01-11T17:45:30.836Z,101032.63
2023-01-11T17:48:10.103Z,101015.16
2023-01-11T17:50:49.706Z,101024.41
2023-01-11T17:53:21.565Z,101016.56
2023-01-11T17:55:52.175Z,101010.63
2023-01-11T17:58:22.597Z,101008.38
2023-01-11T18:01:04.083Z,100995.91
2023-01-11T18:03:34.313Z,100998.28
2023-01-11T18:06:11.620Z,100995.06
2023-01-11T18:08:38.326Z,101002.34
2023-01-11T18:11:05.952Z,100994.13
2023-01-11T18:13:34.063Z,100989.91
2023-01-11T18:16:03.399Z,100997.44
2023-01-11T18:18:40.736Z,100960.19
2023-01-11T18:21:25.468Z,100953.81
2023-01-11T18:24:10.153Z,100956.41
2023-01-11T18:26:39.012Z,100968.72
2023-01-11T18:29:05.923Z,100961.88
2023-01-11T18:31:32.560Z,100957.03
2023-01-11T18:33:59.331Z,100963.06
2023-01-11T18:36:25.873Z,100953.81
2023-01-11T18:38:52.291Z,100956.47
2023-01-11T18:41:18.918Z,100940.63
2023-01-11T18:43:45.520Z,100952.50
2023-01-11T18:46:11.987Z,100941.47
2023-01-11T18:48:38.384Z,100932.03
2023-01-11T18:51:04.866Z,100945.50
2023-01-11T18:53:31.206Z,100949.63
2023-01-11T18:55:57.585Z,100949.78
2023-01-11T18:58:23.900Z,100956.25
2023-01-11T19:00:50.288Z,100956.25
2023-01-11T19:03:16.666Z,100932.53
2023-01-11T19:05:43.091Z,100925.81
2023-01-11T19:08:09.460Z,100933.50
2023-01-11T19:10:35.943Z,100910.91
2023-01-11T19:13:02.300Z,100927.38
2023-01-11T19:15:28.796Z,100938.44
2023-01-11T19:17:55.190Z,100933.31
2023-01-11T19:20:22.811Z,100928.84
2023-01-11T19:22:49.469Z,100919.13
2023-01-11T19:25:16.100Z,100907.50
2023-01-11T19:27:43.010Z,100901.03
2023-01-11T19:30:10.108Z,100913.66
2023-01-11T19:32:36.746Z,100911.28
2023-01-11T19:35:03.145Z,100902.59
2023-01-11T19:37:29.833Z,100905.19
2023-01-11T19:39:56.363Z,100893.59
2023-01-11T19:42:22.913Z,100892.16
2023-01-11T19:44:49.560Z,100897.38
2023-01-11T19:47:16.024Z,100886.06
2023-01-11T19:49:43.446Z,100887.69
2023-01-11T19:52:13.207Z,100869.22
2023-01-11T19:54:44.480Z,100869.84
2023-01-11T19:57:15.717Z,100863.13
2023-01-11T19:59:42.301Z,100854.91
2023-01-11T20:02:11.533Z,100851.53
2023-01-11T20:04:38.196Z,100851.88
2023-01-11T20:07:05.326Z,100845.47
2023-01-11T20:09:31.893Z,100830.22
2023-01-11T20:11:58.382Z,100843.31
2023-01-11T20:14:25.078Z,100844.31
2023-01-11T20:16:51.742Z,100830.44
2023-01-11T20:19:18.068Z,100839.47
2023-01-11T20:21:44.490Z,100858.47
2023-01-11T20:24:14.615Z,100861.88
2023-01-11T20:26:42.139Z,100861.09
2023-01-11T20:29:08.893Z,100858.03
2023-01-11T20:31:35.485Z,100863.25
2023-01-11T20:34:04.940Z,100854.69
2023-01-11T20:36:31.439Z,100858.66
2023-01-11T20:38:57.851Z,100850.22
2023-01-11T20:41:28.965Z,100831.91
2023-01-11T20:43:55.333Z,100834.88
2023-01-11T20:46:21.881Z,100832.34
2023-01-11T20:48:48.345Z,100837.81
2023-01-11T20:51:14.679Z,100834.16
2023-01-11T20:53:41.063Z,100831.09
2023-01-11T20:56:07.847Z,100836.88
2023-01-11T20:58:34.264Z,100847.56
2023-01-11T21:01:05.324Z,100853.41
2023-01-11T21:03:31.923Z,100844.59
2023-01-11T21:05:58.315Z,100841.53
2023-01-11T21:08:24.920Z,100850.78
2023-01-11T21:10:51.292Z,100829.69
2023-01-11T21:13:17.694Z,100840.75
2023-01-11T21:15:44.071Z,100834.06
2023-01-11T21:18:10.491Z,100839.13
2023-01-11T21:20:36.981Z,100824.09
2023-01-11T21:23:03.458Z,100821.88
2023-01-11T21:25:33.758Z,100834.16
2023-01-11T21:28:00.135Z,100838.63
2023-01-11T21:30:26.535Z,100835.22
2023-01-11T21:32:52.907Z,100832.00
2023-01-11T21:35:19.316Z,100844.47
2023-01-11T21:37:45.681Z,100832.47
2023-01-11T21:40:12.515Z,100831.78
2023-01-11T21:42:38.897Z,100840.66
2023-01-11T21:45:05.731Z,100839.69
2023-01-11T21:47:32.094Z,100831.41
2023-01-11T21:49:58.509Z,100835.25
2023-01-11T21:52:24.983Z,100828.63
2023-01-11T21:54:51.311Z,100819.97
2023-01-11T21:57:17.656Z,100825.81
2023-01-11T21:59:44.015Z,100824.44
2023-01-11T22:02:11.337Z,100831.28
2023-01-11T22:04:37.913Z,100832.53
2023-01-11T22:07:04.333Z,100824.84
2023-01-11T22:09:30.834Z,100814.84
2023-01-11T22:11:57.271Z,100819.47
2023-01-11T22:14:24.078Z,100814.00
2023-01-11T22:16:50.486Z,100815.00
2023-01-11T22:19:17.265Z,100813.63
2023-01-11T22:21:43.701Z,100803.66
2023-01-11T22:24:11.095Z,100818.09
2023-01-11T22:26:38.393Z,100816.50
2023-01-11T22:29:06.893Z,100815.25
2023-01-11T22:31:33.747Z,100818.28
2023-01-11T22:34:00.371Z,100812.44
2023-01-11T22:36:28.410Z,100814.06
2023-01-11T22:38:55.276Z,100818.09
2023-01-11T22:41:22.531Z,100819.34
2023-01-11T22:43:49.119Z,100822.38
2023-01-11T22:46:18.326Z,100813.53
2023-01-11T22:48:45.201Z,100801.66
2023-01-11T22:51:12.071Z,100816.38
2023-01-11T22:53:40.103Z,100810.72
2023-01-11T22:56:08.043Z,100815.16
2023-01-11T22:58:34.966Z,100815.53
2023-01-11T23:01:10.785Z,100805.94
2023-01-11T23:03:37.461Z,100811.06
2023-01-11T23:06:04.325Z,100809.91
2023-01-11T23:08:30.832Z,100805.06
2023-01-11T23:11:00.291Z,100808.91
2023-01-11T23:13:26.647Z,100815.31
2023-01-11T23:15:53.965Z,100820.53
2023-01-11T23:18:20.836Z,100825.56
2023-01-11T23:20:47.637Z,100821.34
2023-01-11T23:23:14.065Z,100795.38
2023-01-11T23:25:40.367Z,100817.50
2023-01-11T23:28:06.690Z,100823.31
2023-01-11T23:30:33.268Z,100810.28
2023-01-11T23:32:59.626Z,100820.72
2023-01-11T23:35:26.061Z,100827.56
2023-01-11T23:37:54.242Z,100828.97
2023-01-11T23:40:20.702Z,100823.31
2023-01-11T23:42:47.078Z,100825.31
2023-01-11T23:45:13.458Z,100837.00
2023-01-11T23:47:39.878Z,100847.44
2023-01-11T23:50:06.702Z,100847.44
2023-01-11T23:52:33.081Z,100834.78
2023-01-11T23:54:59.800Z,100839.84
2023-01-11T23:57:26.760Z,100832.03
2023-01-11T23:59:53.208Z,100825.34
